sensor_id;sensor_type;location;lat;lon;timestamp;pressure;altitude;pressure_sealevel;temperature;humidity
10518;BME280;5307;42.548;22.968;2023-04-28T00:00:20;94058.13;;;3.81;81.50
10518;BME280;5307;42.548;22.968;2023-04-28T00:02:47;94057.00;;;3.75;82.37
10518;BME280;5307;42.548;22.968;2023-04-28T00:05:14;94061.69;;;3.12;82.84
10518;BME280;5307;42.548;22.968;2023-04-28T00:07:41;94057.75;;;3.20;83.92
10518;BME280;5307;42.548;22.968;2023-04-28T00:10:08;94055.13;;;3.65;84.02
10518;BME280;5307;42.548;22.968;2023-04-28T00:12:37;94061.56;;;3.85;83.89
10518;BME280;5307;42.548;22.968;2023-04-28T00:15:04;94057.44;;;3.70;84.25
10518;BME280;5307;42.548;22.968;2023-04-28T00:17:31;94059.94;;;3.91;83.72
10518;BME280;5307;42.548;22.968;2023-04-28T00:19:58;94058.16;;;3.74;83.72
10518;BME280;5307;42.548;22.968;2023-04-28T00:22:24;94060.97;;;3.60;84.50
10518;BME280;5307;42.548;22.968;2023-04-28T00:24:51;94062.75;;;3.77;84.91
10518;BME280;5307;42.548;22.968;2023-04-28T00:27:18;94064.38;;;3.71;83.89
10518;BME280;5307;42.548;22.968;2023-04-28T00:29:46;94056.59;;;3.76;84.52
10518;BME280;5307;42.548;22.968;2023-04-28T00:32:13;94060.97;;;3.60;84.71
10518;BME280;5307;42.548;22.968;2023-04-28T00:34:40;94061.47;;;3.44;86.51
10518;BME280;5307;42.548;22.968;2023-04-28T00:37:07;94057.50;;;3.59;84.73
10518;BME280;5307;42.548;22.968;2023-04-28T00:39:33;94065.75;;;3.90;83.71
10518;BME280;5307;42.548;22.968;2023-04-28T00:42:00;94067.16;;;4.05;83.48
10518;BME280;5307;42.548;22.968;2023-04-28T00:44:28;94068.72;;;3.57;84.10
10518;BME280;5307;42.548;22.968;2023-04-28T00:46:57;94062.75;;;3.77;84.63
10518;BME280;5307;42.548;22.968;2023-04-28T00:49:25;94059.00;;;3.64;84.16
10518;BME280;5307;42.548;22.968;2023-04-28T00:51:52;94070.72;;;3.98;83.17
10518;BME280;5307;42.548;22.968;2023-04-28T00:54:18;94065.06;;;3.78;83.25
10518;BME280;5307;42.548;22.968;2023-04-28T00:56:46;94067.59;;;3.48;84.33
10518;BME280;5307;42.548;22.968;2023-04-28T00:59:13;94061.28;;;3.72;83.32
10518;BME280;5307;42.548;22.968;2023-04-28T01:01:40;94070.56;;;3.64;84.70
10518;BME280;5307;42.548;22.968;2023-04-28T01:04:08;94071.44;;;3.54;84.35
10518;BME280;5307;42.548;22.968;2023-04-28T01:06:36;94078.25;;;3.73;85.42
10518;BME280;5307;42.548;22.968;2023-04-28T01:09:03;94082.84;;;3.76;83.18
10518;BME280;5307;42.548;22.968;2023-04-28T01:11:31;94079.13;;;3.59;82.99
10518;BME280;5307;42.548;22.968;2023-04-28T01:13:58;94082.25;;;3.50;82.87
10518;BME280;5307;42.548;22.968;2023-04-28T01:16:25;94075.28;;;3.56;82.61
10518;BME280;5307;42.548;22.968;2023-04-28T01:18:52;94069.91;;;3.53;83.09
10518;BME280;5307;42.548;22.968;2023-04-28T01:21:26;94083.94;;;3.30;83.92
10518;BME280;5307;42.548;22.968;2023-04-28T01:23:56;94074.25;;;3.36;85.02
10518;BME280;5307;42.548;22.968;2023-04-28T01:26:23;94080.13;;;3.24;84.79
10518;BME280;5307;42.548;22.968;2023-04-28T01:28:50;94077.69;;;3.40;85.60
10518;BME280;5307;42.548;22.968;2023-04-28T01:31:16;94083.41;;;3.49;84.13
10518;BME280;5307;42.548;22.968;2023-04-28T01:33:43;94077.31;;;3.42;85.06
10518;BME280;5307;42.548;22.968;2023-04-28T01:36:10;94083.50;;;3.39;84.74
10518;BME280;5307;42.548;22.968;2023-04-28T01:38:37;94086.19;;;3.39;85.33
10518;BME280;5307;42.548;22.968;2023-04-28T01:41:05;94085.78;;;3.44;84.62
10518;BME280;5307;42.548;22.968;2023-04-28T01:43:33;94074.44;;;3.04;84.65
10518;BME280;5307;42.548;22.968;2023-04-28T01:46:00;94087.97;;;2.93;86.12
10518;BME280;5307;42.548;22.968;2023-04-28T01:48:27;94088.66;;;3.12;84.71
10518;BME280;5307;42.548;22.968;2023-04-28T01:50:53;94079.31;;;3.27;84.17
10518;BME280;5307;42.548;22.968;2023-04-28T01:53:20;94090.63;;;3.01;84.96
10518;BME280;5307;42.548;22.968;2023-04-28T01:55:47;94088.28;;;3.10;84.26
10518;BME280;5307;42.548;22.968;2023-04-28T01:58:15;94091.06;;;2.92;83.60
10518;BME280;5307;42.548;22.968;2023-04-28T02:00:42;94084.56;;;2.82;84.13
10518;BME280;5307;42.548;22.968;2023-04-28T02:03:08;94089.56;;;2.80;84.84
10518;BME280;5307;42.548;22.968;2023-04-28T02:05:35;94092.13;;;3.12;84.56
10518;BME280;5307;42.548;22.968;2023-04-28T02:08:04;94090.59;;;3.08;84.85
10518;BME280;5307;42.548;22.968;2023-04-28T02:10:30;94095.63;;;3.06;84.71
10518;BME280;5307;42.548;22.968;2023-04-28T02:12:57;94091.13;;;2.74;85.81
10518;BME280;5307;42.548;22.968;2023-04-28T02:15:25;94094.91;;;2.98;85.82
10518;BME280;5307;42.548;22.968;2023-04-28T02:17:52;94109.53;;;2.93;86.41
10518;BME280;5307;42.548;22.968;2023-04-28T02:20:19;94099.53;;;2.90;86.37
10518;BME280;5307;42.548;22.968;2023-04-28T02:22:46;94099.16;;;2.88;86.71
10518;BME280;5307;42.548;22.968;2023-04-28T02:25:12;94109.25;;;2.70;86.80
10518;BME280;5307;42.548;22.968;2023-04-28T02:27:39;94098.06;;;2.75;87.63
10518;BME280;5307;42.548;22.968;2023-04-28T02:30:07;94107.66;;;2.87;88.98
10518;BME280;5307;42.548;22.968;2023-04-28T02:32:35;94111.47;;;2.96;87.88
10518;BME280;5307;42.548;22.968;2023-04-28T02:35:02;94113.84;;;2.84;88.78
10518;BME280;5307;42.548;22.968;2023-04-28T02:37:30;94109.63;;;2.72;89.07
10518;BME280;5307;42.548;22.968;2023-04-28T02:39:57;94115.81;;;2.62;90.28
10518;BME280;5307;42.548;22.968;2023-04-28T02:42:24;94111.22;;;2.55;90.22
10518;BME280;5307;42.548;22.968;2023-04-28T02:44:51;94115.44;;;2.63;90.62
10518;BME280;5307;42.548;22.968;2023-04-28T02:47:18;94124.66;;;2.66;90.83
10518;BME280;5307;42.548;22.968;2023-04-28T02:49:46;94124.31;;;2.50;90.47
10518;BME280;5307;42.548;22.968;2023-04-28T02:52:13;94125.47;;;2.56;91.54
10518;BME280;5307;42.548;22.968;2023-04-28T02:54:40;94128.56;;;2.36;92.21
10518;BME280;5307;42.548;22.968;2023-04-28T02:57:07;94135.88;;;2.54;91.52
10518;BME280;5307;42.548;22.968;2023-04-28T02:59:34;94128.97;;;2.42;92.25
10518;BME280;5307;42.548;22.968;2023-04-28T03:02:01;94132.06;;;2.33;92.41
10518;BME280;5307;42.548;22.968;2023-04-28T03:04:27;94143.22;;;2.43;92.28
10518;BME280;5307;42.548;22.968;2023-04-28T03:06:55;94140.91;;;2.45;92.58
10518;BME280;5307;42.548;22.968;2023-04-28T03:09:22;94136.25;;;2.49;92.64
10518;BME280;5307;42.548;22.968;2023-04-28T03:11:49;94136.69;;;2.29;93.11
10518;BME280;5307;42.548;22.968;2023-04-28T03:14:16;94135.16;;;2.07;94.06
10518;BME280;5307;42.548;22.968;2023-04-28T03:16:43;94143.59;;;2.23;93.55
10518;BME280;5307;42.548;22.968;2023-04-28T03:19:09;94149.00;;;2.30;92.89
10518;BME280;5307;42.548;22.968;2023-04-28T03:21:36;94152.84;;;2.22;92.03
10518;BME280;5307;42.548;22.968;2023-04-28T03:24:05;94154.41;;;2.27;91.80
10518;BME280;5307;42.548;22.968;2023-04-28T03:26:32;94159.00;;;2.19;92.18
10518;BME280;5307;42.548;22.968;2023-04-28T03:28:59;94167.47;;;2.32;92.21
10518;BME280;5307;42.548;22.968;2023-04-28T03:31:25;94169.41;;;2.14;91.70
10518;BME280;5307;42.548;22.968;2023-04-28T03:33:52;94166.72;;;2.14;91.43
10518;BME280;5307;42.548;22.968;2023-04-28T03:36:19;94158.25;;;2.01;91.11
10518;BME280;5307;42.548;22.968;2023-04-28T03:38:46;94183.63;;;2.07;91.68
10518;BME280;5307;42.548;22.968;2023-04-28T03:41:14;94179.78;;;2.04;92.56
10518;BME280;5307;42.548;22.968;2023-04-28T03:43:40;94182.50;;;2.01;93.19
10518;BME280;5307;42.548;22.968;2023-04-28T03:46:07;94188.66;;;2.12;92.75
10518;BME280;5307;42.548;22.968;2023-04-28T03:48:34;94185.97;;;2.12;92.88
10518;BME280;5307;42.548;22.968;2023-04-28T03:51:01;94189.78;;;2.22;91.79
10518;BME280;5307;42.548;22.968;2023-04-28T03:53:28;94192.50;;;2.25;90.83
10518;BME280;5307;42.548;22.968;2023-04-28T03:55:55;94192.88;;;2.24;91.59
10518;BME280;5307;42.548;22.968;2023-04-28T03:58:23;94193.63;;;1.89;92.89
10518;BME280;5307;42.548;22.968;2023-04-28T04:00:50;94194.41;;;1.96;93.60
10518;BME280;5307;42.548;22.968;2023-04-28T04:03:16;94201.72;;;2.24;92.39
10518;BME280;5307;42.548;22.968;2023-04-28T04:05:46;94197.88;;;2.36;92.71
10518;BME280;5307;42.548;22.968;2023-04-28T04:08:13;94205.97;;;2.36;92.02
10518;BME280;5307;42.548;22.968;2023-04-28T04:10:39;94205.19;;;2.25;91.53
10518;BME280;5307;42.548;22.968;2023-04-28T04:13:06;94209.81;;;2.35;92.37
10518;BME280;5307;42.548;22.968;2023-04-28T04:15:34;94215.97;;;2.14;92.94
10518;BME280;5307;42.548;22.968;2023-04-28T04:18:01;94213.28;;;2.35;93.18
10518;BME280;5307;42.548;22.968;2023-04-28T04:20:28;94215.19;;;2.38;92.82
10518;BME280;5307;42.548;22.968;2023-04-28T04:22:55;94215.19;;;2.56;92.54
10518;BME280;5307;42.548;22.968;2023-04-28T04:25:21;94221.34;;;2.50;92.56
10518;BME280;5307;42.548;22.968;2023-04-28T04:27:48;94218.66;;;2.60;92.36
10518;BME280;5307;42.548;22.968;2023-04-28T04:30:15;94224.41;;;2.66;93.65
10518;BME280;5307;42.548;22.968;2023-04-28T04:32:43;94222.09;;;2.82;93.26
10518;BME280;5307;42.548;22.968;2023-04-28T04:35:10;94221.28;;;2.92;93.02
10518;BME280;5307;42.548;22.968;2023-04-28T04:37:37;94215.56;;;2.83;93.91
10518;BME280;5307;42.548;22.968;2023-04-28T04:40:05;94219.00;;;2.91;93.93
10518;BME280;5307;42.548;22.968;2023-04-28T04:42:32;94225.47;;;3.18;93.00
10518;BME280;5307;42.548;22.968;2023-04-28T04:44:59;94234.38;;;3.12;91.62
10518;BME280;5307;42.548;22.968;2023-04-28T04:47:26;94225.84;;;3.20;90.03
10518;BME280;5307;42.548;22.968;2023-04-28T04:49:55;94230.41;;;3.38;88.03
10518;BME280;5307;42.548;22.968;2023-04-28T04:52:22;94231.50;;;3.54;87.46
10518;BME280;5307;42.548;22.968;2023-04-28T04:54:49;94234.59;;;3.53;86.20
10518;BME280;5307;42.548;22.968;2023-04-28T04:57:16;94239.59;;;3.51;85.44
10518;BME280;5307;42.548;22.968;2023-04-28T04:59:43;94243.53;;;3.32;85.25
10518;BME280;5307;42.548;22.968;2023-04-28T05:02:10;94234.28;;;3.40;84.00
10518;BME280;5307;42.548;22.968;2023-04-28T05:04:37;94238.91;;;3.40;83.93
10518;BME280;5307;42.548;22.968;2023-04-28T05:07:05;94239.63;;;3.47;82.93
10518;BME280;5307;42.548;22.968;2023-04-28T05:09:32;94251.81;;;3.84;82.15
10518;BME280;5307;42.548;22.968;2023-04-28T05:11:58;94246.03;;;3.82;82.16
10518;BME280;5307;42.548;22.968;2023-04-28T05:14:25;94241.63;;;4.06;81.71
10518;BME280;5307;42.548;22.968;2023-04-28T05:16:52;94249.16;;;4.36;82.22
10518;BME280;5307;42.548;22.968;2023-04-28T05:19:19;94239.22;;;4.26;80.57
10518;BME280;5307;42.548;22.968;2023-04-28T05:21:46;94240.22;;;4.46;79.04
10518;BME280;5307;42.548;22.968;2023-04-28T05:24:14;94241.94;;;4.70;78.28
10518;BME280;5307;42.548;22.968;2023-04-28T05:26:41;94242.09;;;4.97;75.34
10518;BME280;5307;42.548;22.968;2023-04-28T05:29:08;94237.97;;;5.20;74.23
10518;BME280;5307;42.548;22.968;2023-04-28T05:31:35;94244.94;;;5.55;73.27
10518;BME280;5307;42.548;22.968;2023-04-28T05:34:02;94240.09;;;5.73;72.32
10518;BME280;5307;42.548;22.968;2023-04-28T05:36:28;94233.75;;;5.83;71.51
10518;BME280;5307;42.548;22.968;2023-04-28T05:38:57;94234.78;;;6.23;71.32
10518;BME280;5307;42.548;22.968;2023-04-28T05:41:26;94227.47;;;6.71;70.37
10518;BME280;5307;42.548;22.968;2023-04-28T05:43:52;94223.81;;;6.81;69.24
10518;BME280;5307;42.548;22.968;2023-04-28T05:46:19;94228.66;;;7.56;67.16
10518;BME280;5307;42.548;22.968;2023-04-28T05:48:46;94223.25;;;7.72;64.57
10518;BME280;5307;42.548;22.968;2023-04-28T05:51:13;94229.13;;;7.91;63.80
10518;BME280;5307;42.548;22.968;2023-04-28T05:53:40;94224.09;;;8.25;63.46
10518;BME280;5307;42.548;22.968;2023-04-28T05:56:07;94224.16;;;8.90;62.64
10518;BME280;5307;42.548;22.968;2023-04-28T05:58:35;94221.59;;;8.67;59.78
10518;BME280;5307;42.548;22.968;2023-04-28T06:01:03;94222.78;;;8.66;59.83
10518;BME280;5307;42.548;22.968;2023-04-28T06:03:30;94219.97;;;9.89;58.00
10518;BME280;5307;42.548;22.968;2023-04-28T06:05:57;94222.13;;;9.94;52.70
10518;BME280;5307;42.548;22.968;2023-04-28T06:08:23;94219.97;;;9.89;54.37
10518;BME280;5307;42.548;22.968;2023-04-28T06:10:50;94222.38;;;10.00;53.89
10518;BME280;5307;42.548;22.968;2023-04-28T06:13:17;94219.69;;;10.38;51.83
10518;BME280;5307;42.548;22.968;2023-04-28T06:15:45;94218.63;;;10.61;51.79
10518;BME280;5307;42.548;22.968;2023-04-28T06:18:12;94219.69;;;10.25;49.85
10518;BME280;5307;42.548;22.968;2023-04-28T06:20:40;94223.34;;;9.93;49.80
10518;BME280;5307;42.548;22.968;2023-04-28T06:23:07;94216.81;;;10.03;49.59
10518;BME280;5307;42.548;22.968;2023-04-28T06:25:34;94216.88;;;10.42;48.44
10518;BME280;5307;42.548;22.968;2023-04-28T06:28:01;94204.19;;;10.73;49.43
10518;BME280;5307;42.548;22.968;2023-04-28T06:30:28;94193.16;;;10.26;47.46
10518;BME280;5307;42.548;22.968;2023-04-28T06:32:57;94200.84;;;11.04;48.24
10518;BME280;5307;42.548;22.968;2023-04-28T06:35:23;94197.53;;;11.43;47.38
10518;BME280;5307;42.548;22.968;2023-04-28T06:37:53;94198.22;;;11.00;46.91
10518;BME280;5307;42.548;22.968;2023-04-28T06:40:20;94200.00;;;11.28;45.48
10518;BME280;5307;42.548;22.968;2023-04-28T06:42:46;94206.00;;;11.23;45.40
10518;BME280;5307;42.548;22.968;2023-04-28T06:45:13;94206.31;;;11.60;45.11
10518;BME280;5307;42.548;22.968;2023-04-28T06:47:40;94209.44;;;11.71;45.83
10518;BME280;5307;42.548;22.968;2023-04-28T06:50:09;94204.84;;;12.12;44.67
10518;BME280;5307;42.548;22.968;2023-04-28T06:52:36;94207.88;;;11.26;43.67
10518;BME280;5307;42.548;22.968;2023-04-28T06:55:05;94207.31;;;11.32;46.65
10518;BME280;5307;42.548;22.968;2023-04-28T06:57:32;94209.09;;;12.44;44.06
10518;BME280;5307;42.548;22.968;2023-04-28T06:59:58;94204.50;;;11.79;42.29
10518;BME280;5307;42.548;22.968;2023-04-28T07:02:25;94202.97;;;12.00;42.94
10518;BME280;5307;42.548;22.968;2023-04-28T07:04:52;94204.88;;;12.21;43.34
10518;BME280;5307;42.548;22.968;2023-04-28T07:07:21;94206.22;;;11.85;42.35
10518;BME280;5307;42.548;22.968;2023-04-28T07:09:48;94206.63;;;12.68;42.67
10518;BME280;5307;42.548;22.968;2023-04-28T07:12:14;94192.31;;;11.58;40.22
10518;BME280;5307;42.548;22.968;2023-04-28T07:14:41;94200.59;;;12.42;40.68
10518;BME280;5307;42.548;22.968;2023-04-28T07:17:08;94201.16;;;11.40;41.92
10518;BME280;5307;42.548;22.968;2023-04-28T07:19:35;94200.13;;;12.43;41.19
10518;BME280;5307;42.548;22.968;2023-04-28T07:22:01;94204.59;;;12.59;40.96
10518;BME280;5307;42.548;22.968;2023-04-28T07:24:30;94195.38;;;12.35;39.60
10518;BME280;5307;42.548;22.968;2023-04-28T07:26:57;94204.59;;;11.75;39.00
10518;BME280;5307;42.548;22.968;2023-04-28T07:29:23;94197.28;;;13.15;41.26
10518;BME280;5307;42.548;22.968;2023-04-28T07:31:53;94190.28;;;13.23;41.10
10518;BME280;5307;42.548;22.968;2023-04-28T07:34:20;94192.00;;;12.71;42.48
10518;BME280;5307;42.548;22.968;2023-04-28T07:36:46;94195.41;;;12.84;41.07
10518;BME280;5307;42.548;22.968;2023-04-28T07:39:13;94193.59;;;12.41;40.68
10518;BME280;5307;42.548;22.968;2023-04-28T07:41:42;94193.84;;;12.74;39.76
10518;BME280;5307;42.548;22.968;2023-04-28T07:44:08;94190.38;;;12.42;39.30
10518;BME280;5307;42.548;22.968;2023-04-28T07:46:36;94192.06;;;12.49;38.78
10518;BME280;5307;42.548;22.968;2023-04-28T07:49:03;94196.22;;;12.63;39.20
10518;BME280;5307;42.548;22.968;2023-04-28T07:51:30;94203.09;;;13.35;39.76
10518;BME280;5307;42.548;22.968;2023-04-28T07:53:57;94199.38;;;13.01;38.14
10518;BME280;5307;42.548;22.968;2023-04-28T07:56:24;94195.94;;;13.19;37.39
10518;BME280;5307;42.548;22.968;2023-04-28T07:58:52;94185.13;;;12.66;37.39
10518;BME280;5307;42.548;22.968;2023-04-28T08:01:19;94179.94;;;12.59;38.99
10518;BME280;5307;42.548;22.968;2023-04-28T08:03:46;94191.28;;;12.89;39.38
10518;BME280;5307;42.548;22.968;2023-04-28T08:06:12;94188.78;;;13.49;38.17
10518;BME280;5307;42.548;22.968;2023-04-28T08:08:39;94196.31;;;12.81;37.95
10518;BME280;5307;42.548;22.968;2023-04-28T08:11:06;94200.94;;;13.12;37.17
10518;BME280;5307;42.548;22.968;2023-04-28T08:13:33;94199.91;;;13.55;35.66
10518;BME280;5307;42.548;22.968;2023-04-28T08:16:01;94193.75;;;13.05;37.07
10518;BME280;5307;42.548;22.968;2023-04-28T08:18:28;94191.13;;;12.83;36.49
10518;BME280;5307;42.548;22.968;2023-04-28T08:20:54;94178.66;;;12.91;36.91
10518;BME280;5307;42.548;22.968;2023-04-28T08:23:21;94188.19;;;13.54;36.37
10518;BME280;5307;42.548;22.968;2023-04-28T08:25:52;94198.06;;;13.79;37.43
10518;BME280;5307;42.548;22.968;2023-04-28T08:28:19;94190.47;;;13.38;35.80
10518;BME280;5307;42.548;22.968;2023-04-28T08:30:46;94179.03;;;13.30;36.20
10518;BME280;5307;42.548;22.968;2023-04-28T08:33:14;94191.84;;;13.51;35.36
10518;BME280;5307;42.548;22.968;2023-04-28T08:35:41;94188.31;;;14.39;37.79
10518;BME280;5307;42.548;22.968;2023-04-28T08:38:08;94181.41;;;14.01;36.83
10518;BME280;5307;42.548;22.968;2023-04-28T08:40:38;94179.22;;;14.14;38.03
10518;BME280;5307;42.548;22.968;2023-04-28T08:43:05;94185.59;;;13.69;35.99
10518;BME280;5307;42.548;22.968;2023-04-28T08:45:40;94181.22;;;14.23;35.74
10518;BME280;5307;42.548;22.968;2023-04-28T08:48:13;94184.94;;;13.65;35.72
10518;BME280;5307;42.548;22.968;2023-04-28T08:50:48;94182.38;;;13.61;34.84
10518;BME280;5307;42.548;22.968;2023-04-28T08:53:21;94184.97;;;14.44;38.39
10518;BME280;5307;42.548;22.968;2023-04-28T08:55:50;94178.25;;;15.02;36.17
10518;BME280;5307;42.548;22.968;2023-04-28T08:58:17;94186.69;;;14.23;36.31
10518;BME280;5307;42.548;22.968;2023-04-28T09:00:44;94179.34;;;14.29;36.39
10518;BME280;5307;42.548;22.968;2023-04-28T09:03:11;94178.78;;;14.58;33.83
10518;BME280;5307;42.548;22.968;2023-04-28T09:05:38;94178.56;;;13.31;33.51
10518;BME280;5307;42.548;22.968;2023-04-28T09:08:06;94175.31;;;13.97;34.50
10518;BME280;5307;42.548;22.968;2023-04-28T09:10:33;94164.94;;;13.92;36.60
10518;BME280;5307;42.548;22.968;2023-04-28T09:13:00;94166.19;;;14.75;34.86
10518;BME280;5307;42.548;22.968;2023-04-28T09:15:29;94172.88;;;14.41;34.79
10518;BME280;5307;42.548;22.968;2023-04-28T09:17:56;94170.53;;;15.15;35.29
10518;BME280;5307;42.548;22.968;2023-04-28T09:20:24;94146.00;;;15.26;35.99
10518;BME280;5307;42.548;22.968;2023-04-28T09:22:53;94159.47;;;15.00;33.60
10518;BME280;5307;42.548;22.968;2023-04-28T09:25:22;94154.38;;;14.09;32.84
10518;BME280;5307;42.548;22.968;2023-04-28T09:27:51;94151.28;;;13.55;32.84
10518;BME280;5307;42.548;22.968;2023-04-28T09:30:18;94156.41;;;14.74;35.61
10518;BME280;5307;42.548;22.968;2023-04-28T09:33:03;94144.72;;;14.89;31.40
10518;BME280;5307;42.548;22.968;2023-04-28T09:35:40;94145.31;;;14.93;33.58
10518;BME280;5307;42.548;22.968;2023-04-28T09:38:07;94138.41;;;14.40;33.85
10518;BME280;5307;42.548;22.968;2023-04-28T09:40:48;94124.50;;;15.54;34.95
10518;BME280;5307;42.548;22.968;2023-04-28T09:43:22;94128.09;;;15.45;34.21
10518;BME280;5307;42.548;22.968;2023-04-28T09:45:49;94126.47;;;14.52;34.45
10518;BME280;5307;42.548;22.968;2023-04-28T09:48:16;94123.81;;;15.44;35.42
10518;BME280;5307;42.548;22.968;2023-04-28T09:50:43;94123.19;;;14.63;32.55
10518;BME280;5307;42.548;22.968;2023-04-28T09:53:10;94112.63;;;14.38;32.91
10518;BME280;5307;42.548;22.968;2023-04-28T09:55:42;94127.47;;;14.64;32.97
10518;BME280;5307;42.548;22.968;2023-04-28T09:58:12;94117.34;;;14.70;31.59
10518;BME280;5307;42.548;22.968;2023-04-28T10:00:41;94115.34;;;14.71;31.40
10518;BME280;5307;42.548;22.968;2023-04-28T10:03:09;94114.75;;;14.34;31.66
10518;BME280;5307;42.548;22.968;2023-04-28T10:05:36;94114.22;;;15.25;32.84
10518;BME280;5307;42.548;22.968;2023-04-28T10:08:04;94104.94;;;14.99;30.62
10518;BME280;5307;42.548;22.968;2023-04-28T10:10:32;94102.59;;;15.06;31.03
10518;BME280;5307;42.548;22.968;2023-04-28T10:13:00;94091.19;;;14.99;30.57
10518;BME280;5307;42.548;22.968;2023-04-28T10:15:28;94105.22;;;15.01;32.35
10518;BME280;5307;42.548;22.968;2023-04-28T10:17:54;94094.97;;;15.01;33.27
10518;BME280;5307;42.548;22.968;2023-04-28T10:20:21;94090.44;;;15.37;32.07
10518;BME280;5307;42.548;22.968;2023-04-28T10:22:57;94092.59;;;15.33;31.10
10518;BME280;5307;42.548;22.968;2023-04-28T10:25:27;94083.31;;;14.68;32.17
10518;BME280;5307;42.548;22.968;2023-04-28T10:27:56;94083.06;;;15.19;32.59
10518;BME280;5307;42.548;22.968;2023-04-28T10:30:26;94084.28;;;14.55;29.91
10518;BME280;5307;42.548;22.968;2023-04-28T10:33:21;94075.22;;;14.88;30.41
10518;BME280;5307;42.548;22.968;2023-04-28T10:35:48;94076.16;;;15.77;33.88
10518;BME280;5307;42.548;22.968;2023-04-28T10:38:16;94076.25;;;16.32;30.52
10518;BME280;5307;42.548;22.968;2023-04-28T10:40:43;94063.59;;;15.61;28.90
10518;BME280;5307;42.548;22.968;2023-04-28T10:43:11;94063.75;;;15.58;30.47
10518;BME280;5307;42.548;22.968;2023-04-28T10:46:01;94058.91;;;14.84;32.07
10518;BME280;5307;42.548;22.968;2023-04-28T10:48:52;94049.47;;;14.76;31.02
10518;BME280;5307;42.548;22.968;2023-04-28T10:51:21;94055.63;;;14.71;32.06
10518;BME280;5307;42.548;22.968;2023-04-28T10:54:15;94033.94;;;15.12;31.47
10518;BME280;5307;42.548;22.968;2023-04-28T10:57:18;94034.16;;;15.53;31.01
10518;BME280;5307;42.548;22.968;2023-04-28T10:59:47;94029.41;;;15.38;31.40
10518;BME280;5307;42.548;22.968;2023-04-28T11:02:49;94029.97;;;15.72;31.61
10518;BME280;5307;42.548;22.968;2023-04-28T11:05:17;94021.53;;;15.61;32.82
10518;BME280;5307;42.548;22.968;2023-04-28T11:11:19;94011.91;;;16.00;31.80
10518;BME280;5307;42.548;22.968;2023-04-28T11:13:47;94011.72;;;15.15;31.46
10518;BME280;5307;42.548;22.968;2023-04-28T11:16:16;94010.34;;;15.79;32.01
10518;BME280;5307;42.548;22.968;2023-04-28T11:18:59;94010.56;;;14.93;30.15
10518;BME280;5307;42.548;22.968;2023-04-28T11:21:29;94005.97;;;14.75;32.82
10518;BME280;5307;42.548;22.968;2023-04-28T11:23:56;94005.94;;;15.28;31.25
10518;BME280;5307;42.548;22.968;2023-04-28T11:26:23;94005.00;;;15.31;30.49
10518;BME280;5307;42.548;22.968;2023-04-28T11:28:51;93996.56;;;15.50;31.06
10518;BME280;5307;42.548;22.968;2023-04-28T11:31:19;93995.81;;;15.34;31.13
10518;BME280;5307;42.548;22.968;2023-04-28T11:34:02;93994.09;;;15.37;29.37
10518;BME280;5307;42.548;22.968;2023-04-28T11:36:31;93981.13;;;14.69;30.26
10518;BME280;5307;42.548;22.968;2023-04-28T11:39:00;93996.09;;;14.68;30.83
10518;BME280;5307;42.548;22.968;2023-04-28T11:41:29;93988.00;;;15.18;31.61
10518;BME280;5307;42.548;22.968;2023-04-28T11:43:56;93987.09;;;15.21;31.00
10518;BME280;5307;42.548;22.968;2023-04-28T11:46:24;93976.50;;;14.27;31.07
10518;BME280;5307;42.548;22.968;2023-04-28T11:49:02;93980.59;;;14.95;33.43
10518;BME280;5307;42.548;22.968;2023-04-28T11:51:34;93980.13;;;14.58;32.75
10518;BME280;5307;42.548;22.968;2023-04-28T11:54:03;93970.53;;;14.92;32.94
10518;BME280;5307;42.548;22.968;2023-04-28T11:56:36;93976.41;;;14.46;31.46
10518;BME280;5307;42.548;22.968;2023-04-28T11:59:05;93968.03;;;14.64;30.60
10518;BME280;5307;42.548;22.968;2023-04-28T12:01:34;93965.22;;;14.88;31.54
10518;BME280;5307;42.548;22.968;2023-04-28T12:04:03;93962.31;;;15.21;31.63
10518;BME280;5307;42.548;22.968;2023-04-28T12:06:30;93969.84;;;14.43;30.46
10518;BME280;5307;42.548;22.968;2023-04-28T12:08:56;93964.47;;;15.02;31.45
10518;BME280;5307;42.548;22.968;2023-04-28T12:11:28;93965.44;;;14.61;29.74
10518;BME280;5307;42.548;22.968;2023-04-28T12:14:05;93953.19;;;14.47;31.07
10518;BME280;5307;42.548;22.968;2023-04-28T12:16:37;93959.09;;;14.93;31.80
10518;BME280;5307;42.548;22.968;2023-04-28T12:19:09;93945.97;;;15.03;32.21
10518;BME280;5307;42.548;22.968;2023-04-28T12:21:37;93957.25;;;15.05;32.25
10518;BME280;5307;42.548;22.968;2023-04-28T12:24:18;93946.66;;;15.12;32.13
10518;BME280;5307;42.548;22.968;2023-04-28T12:26:46;93937.63;;;15.27;34.58
10518;BME280;5307;42.548;22.968;2023-04-28T12:29:36;93941.63;;;15.11;32.14
10518;BME280;5307;42.548;22.968;2023-04-28T12:32:04;93950.34;;;14.95;32.42
10518;BME280;5307;42.548;22.968;2023-04-28T12:34:33;93938.69;;;15.00;31.62
10518;BME280;5307;42.548;22.968;2023-04-28T12:37:01;93940.59;;;14.94;32.61
10518;BME280;5307;42.548;22.968;2023-04-28T12:39:30;93937.72;;;14.73;32.84
10518;BME280;5307;42.548;22.968;2023-04-28T12:41:57;93927.19;;;14.72;32.58
10518;BME280;5307;42.548;22.968;2023-04-28T12:44:24;93932.50;;;14.90;33.06
10518;BME280;5307;42.548;22.968;2023-04-28T12:46:52;93921.97;;;15.03;34.03
10518;BME280;5307;42.548;22.968;2023-04-28T12:49:21;93935.47;;;15.16;32.11
10518;BME280;5307;42.548;22.968;2023-04-28T12:51:49;93939.38;;;15.09;32.20
10518;BME280;5307;42.548;22.968;2023-04-28T12:54:16;93938.69;;;15.00;31.46
10518;BME280;5307;42.548;22.968;2023-04-28T12:56:43;93923.88;;;14.82;31.48
10518;BME280;5307;42.548;22.968;2023-04-28T12:59:10;93919.81;;;15.37;34.97
10518;BME280;5307;42.548;22.968;2023-04-28T13:01:37;93927.66;;;15.44;32.15
10518;BME280;5307;42.548;22.968;2023-04-28T13:04:04;93917.72;;;15.17;31.73
10518;BME280;5307;42.548;22.968;2023-04-28T13:06:31;93909.75;;;15.19;31.00
10518;BME280;5307;42.548;22.968;2023-04-28T13:08:59;93919.69;;;15.31;30.80
10518;BME280;5307;42.548;22.968;2023-04-28T13:11:28;93922.75;;;15.04;29.72
10518;BME280;5307;42.548;22.968;2023-04-28T13:13:56;93909.47;;;15.02;29.95